Time;durP1;ratioP1;P1;durP2;ratioP2;P2;SDS_P1;SDS_P2;PMS_P1;PMS_P2;Temp;Humidity;BMP_temperature;BMP_pressure;BME280_temperature;BME280_humidity;BME280_pressure;Samples;Min_cycle;Max_cycle;Signal;HPM_P1;HPM_P2
2021/05/05 00:00:38;;;;;;;;;10.75;10.00;;;;;;;;3724423;38;20304;-64
2021/05/05 00:03:04;;;;;;;;;10.25;9.25;;;;;;;;3724665;37;20308;-65
2021/05/05 00:05:33;;;;;;;;;8.00;8.00;;;;;;;;3724962;37;20300;-65
2021/05/05 00:08:00;;;;;;;;;13.00;12.75;;;;;;;;3724826;38;20621;-66
2021/05/05 00:10:26;;;;;;;;;13.00;11.75;;;;;;;;3724814;38;20329;-66
2021/05/05 00:12:52;;;;;;;;;9.75;8.75;;;;;;;;3725268;37;20321;-66
2021/05/05 00:15:20;;;;;;;;;7.00;7.00;;;;;;;;3725183;38;20271;-64
2021/05/05 00:17:46;;;;;;;;;10.00;9.50;;;;;;;;3724775;37;21306;-64
2021/05/05 00:20:12;;;;;;;;;10.00;9.50;;;;;;;;3724821;38;21465;-65
2021/05/05 00:22:38;;;;;;;;;12.00;10.50;;;;;;;;3724972;38;18353;-64
2021/05/05 00:25:06;;;;;;;;;11.50;10.50;;;;;;;;3724759;37;21463;-65
2021/05/05 00:27:32;;;;;;;;;9.50;9.50;;;;;;;;3724380;37;21424;-64
2021/05/05 00:30:00;;;;;;;;;10.00;10.00;;;;;;;;3724954;38;21425;-65
2021/05/05 00:32:26;;;;;;;;;11.25;11.00;;;;;;;;3724819;37;21352;-63
2021/05/05 00:34:52;;;;;;;;;11.25;11.25;;;;;;;;3724468;37;21525;-64
2021/05/05 00:37:18;;;;;;;;;11.00;11.00;;;;;;;;3724898;38;18348;-64
2021/05/05 00:39:45;;;;;;;;;8.25;8.25;;;;;;;;3724984;38;18324;-64
2021/05/05 00:42:11;;;;;;;;;9.00;8.25;;;;;;;;3724527;37;21147;-65
2021/05/05 00:44:38;;;;;;;;;13.25;12.00;;;;;;;;3724988;37;21312;-65
2021/05/05 00:47:05;;;;;;;;;11.75;10.00;;;;;;;;3724694;37;18317;-65
2021/05/05 00:49:30;;;;;;;;;8.75;8.75;;;;;;;;3726769;38;21363;-65
2021/05/05 00:51:57;;;;;;;;;12.00;12.00;;;;;;;;3725148;38;21271;-64
2021/05/05 00:54:23;;;;;;;;;11.50;10.75;;;;;;;;3724643;38;18305;-64
2021/05/05 00:56:50;;;;;;;;;13.00;11.00;;;;;;;;3724826;38;21383;-65
2021/05/05 00:59:16;;;;;;;;;10.25;10.25;;;;;;;;3724441;37;18302;-65
2021/05/05 01:01:42;;;;;;;;;12.00;12.00;;;;;;;;3724941;38;21366;-66
2021/05/05 01:04:09;;;;;;;;;9.50;9.00;;;;;;;;3724907;38;18315;-66
2021/05/05 01:06:36;;;;;;;;;12.00;11.00;;;;;;;;3724685;38;21318;-64
2021/05/05 01:09:02;;;;;;;;;11.75;11.25;;;;;;;;3724525;38;21390;-64
2021/05/05 01:11:28;;;;;;;;;10.25;10.25;;;;;;;;3724694;38;21390;-64
2021/05/05 01:13:55;;;;;;;;;9.00;9.00;;;;;;;;3724837;38;21497;-66
2021/05/05 01:16:22;;;;;;;;;11.00;9.50;;;;;;;;3724868;38;18292;-67
2021/05/05 01:18:49;;;;;;;;;8.25;8.25;;;;;;;;3724778;37;21292;-67
2021/05/05 01:21:21;;;;;;;;;8.75;8.50;;;;;;;;3724513;37;21238;-67
2021/05/05 01:23:47;;;;;;;;;11.25;11.25;;;;;;;;3724790;38;21275;-68
2021/05/05 01:26:13;;;;;;;;;9.25;9.25;;;;;;;;3724586;37;21376;-67
2021/05/05 01:28:40;;;;;;;;;11.00;11.00;;;;;;;;3725209;37;20757;-69
2021/05/05 01:31:08;;;;;;;;;9.50;9.50;;;;;;;;3725085;37;20803;-67
2021/05/05 01:33:33;;;;;;;;;9.75;8.75;;;;;;;;3725187;38;20712;-69
2021/05/05 01:35:59;;;;;;;;;10.00;9.25;;;;;;;;3725125;38;20682;-67
2021/05/05 01:38:25;;;;;;;;;10.25;9.50;;;;;;;;3725276;37;18173;-69
2021/05/05 01:40:52;;;;;;;;;10.25;10.25;;;;;;;;3725150;38;18151;-67
2021/05/05 01:43:18;;;;;;;;;9.50;8.00;;;;;;;;3725195;37;18175;-68
2021/05/05 01:45:43;;;;;;;;;22.00;21.75;;;;;;;;3725180;38;20692;-68
2021/05/05 01:48:10;;;;;;;;;20.25;20.25;;;;;;;;3725280;38;18164;-68
2021/05/05 01:50:36;;;;;;;;;11.50;11.50;;;;;;;;3724757;37;18170;-69
2021/05/05 01:53:03;;;;;;;;;9.75;9.25;;;;;;;;3725307;37;20707;-69
2021/05/05 01:55:30;;;;;;;;;11.25;11.00;;;;;;;;3725115;38;20718;-69
2021/05/05 01:57:55;;;;;;;;;9.00;9.00;;;;;;;;3724632;38;20707;-67
2021/05/05 02:00:26;;;;;;;;;11.50;11.25;;;;;;;;3725128;37;20656;-67
2021/05/05 02:02:52;;;;;;;;;1.00;1.00;;;;;;;;3725059;37;18137;-67
2021/05/05 02:05:18;;;;;;;;;10.25;10.25;;;;;;;;3725145;38;20673;-68
2021/05/05 02:07:44;;;;;;;;;11.25;10.50;;;;;;;;3725083;37;20716;-69
2021/05/05 02:10:11;;;;;;;;;11.00;9.50;;;;;;;;3725074;37;18129;-68
2021/05/05 02:12:37;;;;;;;;;9.50;9.50;;;;;;;;3725148;37;18147;-68
2021/05/05 02:15:04;;;;;;;;;9.00;9.00;;;;;;;;3725177;37;20648;-70
2021/05/05 02:17:29;;;;;;;;;11.25;11.00;;;;;;;;3725070;37;18118;-67
2021/05/05 02:19:55;;;;;;;;;12.00;12.00;;;;;;;;3724987;38;20684;-67
2021/05/05 02:22:21;;;;;;;;;10.50;10.50;;;;;;;;3725357;38;18125;-68
2021/05/05 02:24:48;;;;;;;;;9.00;9.00;;;;;;;;3725307;37;18075;-68
2021/05/05 02:27:15;;;;;;;;;10.25;9.75;;;;;;;;3724801;38;18164;-69
2021/05/05 02:29:41;;;;;;;;;13.75;12.75;;;;;;;;3724903;38;20690;-66
2021/05/05 02:32:09;;;;;;;;;12.75;12.00;;;;;;;;3725295;37;20679;-68
2021/05/05 02:34:35;;;;;;;;;12.00;12.00;;;;;;;;3725042;37;20689;-67
2021/05/05 02:37:09;;;;;;;;;10.75;10.75;;;;;;;;3725055;37;20674;-67
2021/05/05 02:39:39;;;;;;;;;54.75;45.75;;;;;;;;3725091;38;20659;-69
2021/05/05 02:42:07;;;;;;;;;15.00;14.25;;;;;;;;3724652;37;20750;-68
2021/05/05 02:44:34;;;;;;;;;15.00;14.25;;;;;;;;3724690;37;20955;-65
2021/05/05 02:47:02;;;;;;;;;14.75;13.75;;;;;;;;3724842;37;20686;-67
2021/05/05 02:49:29;;;;;;;;;15.00;15.00;;;;;;;;3724736;38;20654;-68
2021/05/05 02:51:55;;;;;;;;;14.75;14.75;;;;;;;;3725025;37;20687;-67
2021/05/05 02:54:21;;;;;;;;;15.25;13.50;;;;;;;;3724932;38;20659;-67
2021/05/05 02:56:47;;;;;;;;;12.75;12.75;;;;;;;;3725064;38;18076;-68
2021/05/05 02:59:12;;;;;;;;;14.50;14.00;;;;;;;;3725250;38;18072;-67
2021/05/05 03:01:38;;;;;;;;;11.50;11.50;;;;;;;;3724776;37;18060;-68
2021/05/05 03:04:04;;;;;;;;;12.50;12.00;;;;;;;;3725050;37;18050;-69
2021/05/05 03:06:30;;;;;;;;;13.00;13.00;;;;;;;;3725108;37;18044;-64
2021/05/05 03:08:57;;;;;;;;;10.25;10.25;;;;;;;;3724975;37;20602;-63
2021/05/05 03:11:24;;;;;;;;;17.25;15.25;;;;;;;;3724848;37;20629;-70
2021/05/05 03:13:52;;;;;;;;;14.75;14.25;;;;;;;;3724580;37;20704;-66
2021/05/05 03:16:17;;;;;;;;;15.50;14.75;;;;;;;;3725097;37;20589;-68
2021/05/05 03:18:43;;;;;;;;;13.50;13.50;;;;;;;;3725080;37;20617;-66
2021/05/05 03:21:10;;;;;;;;;15.00;11.25;;;;;;;;3725157;38;18036;-66
2021/05/05 03:23:38;;;;;;;;;15.25;15.00;;;;;;;;3725014;37;20619;-67
2021/05/05 03:26:04;;;;;;;;;13.50;12.75;;;;;;;;3725319;38;20605;-66
2021/05/05 03:28:30;;;;;;;;;13.25;13.25;;;;;;;;3728006;37;20604;-69
2021/05/05 03:30:56;;;;;;;;;13.75;13.00;;;;;;;;3726769;38;18022;-67
2021/05/05 03:33:23;;;;;;;;;15.25;14.50;;;;;;;;3725389;37;17990;-69
2021/05/05 03:35:48;;;;;;;;;15.50;15.50;;;;;;;;3724961;37;18241;-67
2021/05/05 03:38:14;;;;;;;;;14.50;14.50;;;;;;;;3725142;38;20613;-70
2021/05/05 03:40:40;;;;;;;;;12.50;12.25;;;;;;;;3725090;37;18011;-68
2021/05/05 03:43:06;;;;;;;;;17.50;17.00;;;;;;;;3725200;37;18003;-69
2021/05/05 03:45:33;;;;;;;;;22.00;22.00;;;;;;;;3725560;38;20624;-70
2021/05/05 03:47:59;;;;;;;;;21.75;21.00;;;;;;;;3725589;37;17985;-70
2021/05/05 03:50:25;;;;;;;;;16.00;16.00;;;;;;;;3725365;38;20579;-71
2021/05/05 03:52:51;;;;;;;;;10.25;9.50;;;;;;;;3725724;37;17981;-69
2021/05/05 03:55:17;;;;;;;;;16.00;16.00;;;;;;;;3725651;37;20574;-70
2021/05/05 03:57:43;;;;;;;;;13.00;13.00;;;;;;;;3725197;38;20560;-70
2021/05/05 04:00:10;;;;;;;;;22.25;21.25;;;;;;;;3725326;38;17971;-70
2021/05/05 04:02:35;;;;;;;;;14.25;14.25;;;;;;;;3725129;38;18254;-69
2021/05/05 04:05:02;;;;;;;;;18.00;16.25;;;;;;;;3725270;37;20540;-69
2021/05/05 04:07:28;;;;;;;;;14.25;13.75;;;;;;;;3725245;37;20562;-71
2021/05/05 04:09:55;;;;;;;;;14.50;13.50;;;;;;;;3725267;38;20544;-69
2021/05/05 04:12:21;;;;;;;;;13.00;13.00;;;;;;;;3725353;37;17980;-67
2021/05/05 04:14:47;;;;;;;;;15.00;15.00;;;;;;;;3725334;37;20568;-69
2021/05/05 04:17:12;;;;;;;;;17.00;15.75;;;;;;;;3725227;38;17977;-70
2021/05/05 04:19:40;;;;;;;;;18.75;18.00;;;;;;;;3725890;38;17973;-69
2021/05/05 04:22:07;;;;;;;;;15.75;15.25;;;;;;;;3725429;37;17933;-71
2021/05/05 04:24:33;;;;;;;;;17.00;15.00;;;;;;;;3725163;37;20559;-68
2021/05/05 04:26:59;;;;;;;;;18.00;17.75;;;;;;;;3725440;37;20557;-70
2021/05/05 04:29:26;;;;;;;;;24.75;23.75;;;;;;;;3725260;38;20538;-70
2021/05/05 04:31:52;;;;;;;;;16.25;16.25;;;;;;;;3725497;38;20537;-68
2021/05/05 04:34:19;;;;;;;;;16.75;16.75;;;;;;;;3725468;38;20507;-70
2021/05/05 04:36:45;;;;;;;;;14.25;14.25;;;;;;;;3724844;38;20631;-69
2021/05/05 04:39:12;;;;;;;;;13.25;12.50;;;;;;;;3724995;37;20612;-70
2021/05/05 04:41:37;;;;;;;;;15.25;14.25;;;;;;;;3725204;38;20507;-73
2021/05/05 04:44:04;;;;;;;;;15.75;15.50;;;;;;;;3725239;38;20502;-68
2021/05/05 04:46:29;;;;;;;;;12.25;11.00;;;;;;;;3725747;37;17937;-70
2021/05/05 04:48:55;;;;;;;;;14.50;14.25;;;;;;;;3725297;38;20461;-71
2021/05/05 04:51:21;;;;;;;;;15.00;14.75;;;;;;;;3725595;37;17913;-69
2021/05/05 04:53:47;;;;;;;;;14.00;12.50;;;;;;;;3725420;38;17903;-68
2021/05/05 04:56:13;;;;;;;;;15.25;15.25;;;;;;;;3725210;37;20519;-67
2021/05/05 04:58:39;;;;;;;;;16.25;14.25;;;;;;;;3725397;37;17913;-66
2021/05/05 05:01:04;;;;;;;;;16.00;16.00;;;;;;;;3725438;38;17888;-67
2021/05/05 05:03:30;;;;;;;;;14.75;13.25;;;;;;;;3725578;38;17904;-66
2021/05/05 05:05:56;;;;;;;;;14.50;14.50;;;;;;;;3725348;38;17907;-66
2021/05/05 05:08:22;;;;;;;;;13.00;13.00;;;;;;;;3725298;37;17888;-66
2021/05/05 05:10:47;;;;;;;;;17.00;16.75;;;;;;;;3725399;37;17873;-63
2021/05/05 05:13:13;;;;;;;;;13.25;13.00;;;;;;;;3725074;37;17870;-66
2021/05/05 05:15:39;;;;;;;;;13.75;13.75;;;;;;;;3725347;38;17898;-63
2021/05/05 05:18:05;;;;;;;;;13.75;13.75;;;;;;;;3725322;37;17862;-64
2021/05/05 05:20:31;;;;;;;;;19.00;18.00;;;;;;;;3725228;37;17880;-65
2021/05/05 05:22:57;;;;;;;;;16.00;15.75;;;;;;;;3725189;37;20471;-65
2021/05/05 05:25:27;;;;;;;;;15.75;15.00;;;;;;;;3724678;38;20466;-65
2021/05/05 05:27:53;;;;;;;;;15.75;15.00;;;;;;;;3725217;37;17875;-64
2021/05/05 05:30:20;;;;;;;;;13.75;13.00;;;;;;;;3725179;37;20445;-65
2021/05/05 05:32:46;;;;;;;;;18.25;17.25;;;;;;;;3725206;38;17875;-63
2021/05/05 05:35:12;;;;;;;;;14.50;14.50;;;;;;;;3724748;38;20452;-64
2021/05/05 05:37:38;;;;;;;;;15.50;15.00;;;;;;;;3725126;38;20444;-66
2021/05/05 05:40:08;;;;;;;;;15.25;15.25;;;;;;;;3725133;37;20953;-64
2021/05/05 05:42:34;;;;;;;;;19.75;18.50;;;;;;;;3725300;37;17841;-68
2021/05/05 05:45:00;;;;;;;;;15.25;15.00;;;;;;;;3725234;38;20439;-64
2021/05/05 05:47:27;;;;;;;;;20.25;18.75;;;;;;;;3725229;37;17850;-65
2021/05/05 05:49:53;;;;;;;;;14.00;14.00;;;;;;;;3725217;37;17865;-68
2021/05/05 05:52:20;;;;;;;;;16.75;16.75;;;;;;;;3725333;38;20421;-65
2021/05/05 05:54:46;;;;;;;;;20.75;18.50;;;;;;;;3725129;38;20421;-65
2021/05/05 05:57:12;;;;;;;;;20.00;18.25;;;;;;;;3725399;37;20418;-68
2021/05/05 05:59:37;;;;;;;;;15.75;15.75;;;;;;;;3725364;38;17839;-66
2021/05/05 06:02:03;;;;;;;;;17.00;17.00;;;;;;;;3725510;38;17841;-64
2021/05/05 06:04:29;;;;;;;;;16.50;15.25;;;;;;;;3725340;38;18102;-67
2021/05/05 06:06:54;;;;;;;;;13.75;13.25;;;;;;;;3726678;37;17825;-66
2021/05/05 06:09:20;;;;;;;;;17.50;15.75;;;;;;;;3728457;37;17821;-69
2021/05/05 06:11:46;;;;;;;;;12.00;12.00;;;;;;;;3726652;37;17836;-67
2021/05/05 06:14:18;;;;;;;;;11.00;10.25;;;;;;;;3729335;37;17797;-68
2021/05/05 06:16:44;;;;;;;;;11.75;11.75;;;;;;;;3725293;37;17828;-68
2021/05/05 06:19:11;;;;;;;;;15.00;15.00;;;;;;;;3725377;37;20379;-74
2021/05/05 06:21:36;;;;;;;;;11.25;11.25;;;;;;;;3724952;38;17807;-68
2021/05/05 06:24:03;;;;;;;;;10.00;10.00;;;;;;;;3725158;37;20391;-69
2021/05/05 06:26:30;;;;;;;;;13.25;12.00;;;;;;;;3725240;37;17810;-70
2021/05/05 06:28:55;;;;;;;;;12.00;11.75;;;;;;;;3724877;38;20397;-67
2021/05/05 06:31:27;;;;;;;;;11.25;11.25;;;;;;;;3725377;37;20382;-68
2021/05/05 06:33:53;;;;;;;;;12.75;12.00;;;;;;;;3725269;37;17806;-68
2021/05/05 06:36:18;;;;;;;;;25.00;25.00;;;;;;;;3725207;37;20369;-68
2021/05/05 06:38:45;;;;;;;;;26.00;23.50;;;;;;;;3725179;37;17789;-69
2021/05/05 06:41:11;;;;;;;;;19.25;18.00;;;;;;;;3724751;37;17764;-68
2021/05/05 06:43:37;;;;;;;;;10.00;10.00;;;;;;;;3725200;38;20383;-68
2021/05/05 06:46:03;;;;;;;;;10.75;10.75;;;;;;;;3725217;38;17765;-67
2021/05/05 06:48:29;;;;;;;;;25.00;24.75;;;;;;;;3725101;37;17763;-67
2021/05/05 06:50:55;;;;;;;;;15.50;13.00;;;;;;;;3725225;37;17770;-68
2021/05/05 06:53:21;;;;;;;;;12.50;12.00;;;;;;;;3725151;37;20396;-67
2021/05/05 06:55:47;;;;;;;;;17.75;17.00;;;;;;;;3725204;37;17747;-68
2021/05/05 06:58:32;;;;;;;;;14.00;11.75;;;;;;;;3725052;37;20317;-68
2021/05/05 07:00:59;;;;;;;;;9.25;9.25;;;;;;;;3725254;37;20346;-68
2021/05/05 07:03:25;;;;;;;;;11.50;11.00;;;;;;;;3725116;37;20327;-68
2021/05/05 07:05:51;;;;;;;;;11.00;10.75;;;;;;;;3724853;37;20347;-68
2021/05/05 07:08:17;;;;;;;;;12.50;12.50;;;;;;;;3725569;38;17727;-68
2021/05/05 07:10:43;;;;;;;;;12.00;12.00;;;;;;;;3725173;37;17723;-68
2021/05/05 07:13:08;;;;;;;;;11.50;10.75;;;;;;;;3725254;37;17738;-68
2021/05/05 07:15:34;;;;;;;;;10.00;10.00;;;;;;;;3725142;37;20361;-68
2021/05/05 07:18:01;;;;;;;;;13.75;12.25;;;;;;;;3725308;38;17740;-68
2021/05/05 07:20:27;;;;;;;;;13.50;13.00;;;;;;;;3725242;37;17719;-67
2021/05/05 07:22:52;;;;;;;;;14.00;12.25;;;;;;;;3725241;37;20304;-71
2021/05/05 07:25:18;;;;;;;;;8.25;8.25;;;;;;;;3725591;38;20320;-75
2021/05/05 07:27:44;;;;;;;;;11.00;11.00;;;;;;;;3725190;37;17721;-70
2021/05/05 07:30:12;;;;;;;;;14.75;14.25;;;;;;;;3727677;38;17708;-70
2021/05/05 07:32:38;;;;;;;;;12.50;12.00;;;;;;;;3725353;38;17710;-68
2021/05/05 07:35:07;;;;;;;;;11.00;10.25;;;;;;;;3724523;37;20314;-68
2021/05/05 07:46:19;;;;;;;;;7.50;7.50;;;;;;;;3725246;38;20258;-67
2021/05/05 07:48:52;;;;;;;;;8.50;7.50;;;;;;;;3725207;38;20205;-67
2021/05/05 07:51:18;;;;;;;;;8.00;8.00;;;;;;;;3725240;37;20246;-67
2021/05/05 07:53:44;;;;;;;;;10.00;10.00;;;;;;;;3725243;38;20302;-67
2021/05/05 07:56:10;;;;;;;;;9.75;9.75;;;;;;;;3725363;38;17685;-69
2021/05/05 07:58:36;;;;;;;;;10.50;10.00;;;;;;;;3725256;37;20216;-68
2021/05/05 08:01:04;;;;;;;;;10.75;10.00;;;;;;;;3725234;37;20254;-72
2021/05/05 08:03:30;;;;;;;;;11.00;11.00;;;;;;;;3725431;37;17670;-66
2021/05/05 08:05:56;;;;;;;;;8.50;8.50;;;;;;;;3725223;37;20245;-67
2021/05/05 08:08:24;;;;;;;;;12.75;11.75;;;;;;;;3725250;37;17651;-67
2021/05/05 08:10:57;;;;;;;;;11.00;10.00;;;;;;;;3725356;37;17650;-68
2021/05/05 08:13:23;;;;;;;;;16.50;16.50;;;;;;;;3725358;37;20211;-69
2021/05/05 08:15:49;;;;;;;;;13.00;13.00;;;;;;;;3725234;38;20261;-67
2021/05/05 08:18:15;;;;;;;;;10.25;9.75;;;;;;;;3724966;37;20271;-69
2021/05/05 08:20:42;;;;;;;;;9.75;9.75;;;;;;;;3725435;38;17959;-66
2021/05/05 08:23:08;;;;;;;;;10.00;9.25;;;;;;;;3725481;37;20229;-68
2021/05/05 08:25:34;;;;;;;;;9.00;8.00;;;;;;;;3725461;38;20209;-67
2021/05/05 08:28:00;;;;;;;;;12.50;11.25;;;;;;;;3725379;37;20199;-67
2021/05/05 08:30:27;;;;;;;;;11.00;10.00;;;;;;;;3725473;37;17624;-66
2021/05/05 08:32:53;;;;;;;;;11.50;11.00;;;;;;;;3725464;38;20228;-64
2021/05/05 08:35:20;;;;;;;;;10.25;10.25;;;;;;;;3727620;37;20223;-64
2021/05/05 08:37:51;;;;;;;;;10.00;10.00;;;;;;;;3730067;37;20191;-64
2021/05/05 08:40:18;;;;;;;;;13.00;12.00;;;;;;;;3730591;38;20214;-66
2021/05/05 08:42:44;;;;;;;;;7.50;7.50;;;;;;;;3731705;38;20210;-65
2021/05/05 08:45:14;;;;;;;;;11.00;11.00;;;;;;;;3726539;37;20158;-65
2021/05/05 08:47:41;;;;;;;;;8.25;8.00;;;;;;;;3727369;38;20220;-65
2021/05/05 08:50:08;;;;;;;;;9.25;8.50;;;;;;;;3727731;38;20193;-67
2021/05/05 08:52:34;;;;;;;;;8.25;8.25;;;;;;;;3726389;37;20191;-66
2021/05/05 08:54:59;;;;;;;;;8.75;8.75;;;;;;;;3725376;37;21193;-66
2021/05/05 08:57:25;;;;;;;;;12.00;11.75;;;;;;;;3725400;38;17580;-66
2021/05/05 08:59:51;;;;;;;;;8.75;8.00;;;;;;;;3725661;37;17591;-68
2021/05/05 09:02:18;;;;;;;;;8.00;8.00;;;;;;;;3725643;37;17606;-67
2021/05/05 09:05:00;;;;;;;;;10.00;10.00;;;;;;;;3725493;37;18578;-68
2021/05/05 09:07:30;;;;;;;;;10.50;10.50;;;;;;;;3725345;37;20144;-66
2021/05/05 09:09:59;;;;;;;;;9.00;9.00;;;;;;;;3725839;37;21186;-67
2021/05/05 09:12:25;;;;;;;;;9.25;9.00;;;;;;;;3725299;38;21149;-67
2021/05/05 09:14:58;;;;;;;;;9.00;9.00;;;;;;;;3725161;37;20205;-69
2021/05/05 09:17:28;;;;;;;;;14.50;14.50;;;;;;;;3725112;38;18555;-65
2021/05/05 09:20:28;;;;;;;;;18.75;18.25;;;;;;;;3725359;38;21162;-68
2021/05/05 09:22:58;;;;;;;;;10.00;10.00;;;;;;;;3724941;38;21251;-66
2021/05/05 09:25:26;;;;;;;;;8.00;8.00;;;;;;;;3725231;38;21132;-66
2021/05/05 09:28:10;;;;;;;;;6.75;6.00;;;;;;;;3724749;38;21114;-67
2021/05/05 09:30:38;;;;;;;;;10.00;8.75;;;;;;;;3725209;38;21128;-69
2021/05/05 09:33:04;;;;;;;;;14.75;14.50;;;;;;;;3725416;38;21114;-67
2021/05/05 09:35:31;;;;;;;;;7.25;7.25;;;;;;;;3725209;37;21149;-66
2021/05/05 09:37:58;;;;;;;;;11.00;11.00;;;;;;;;3724815;38;18526;-67
2021/05/05 09:40:24;;;;;;;;;10.25;9.75;;;;;;;;3724830;37;21370;-68
2021/05/05 09:42:50;;;;;;;;;10.00;8.50;;;;;;;;3724889;37;21093;-67
2021/05/05 09:45:16;;;;;;;;;5.00;5.00;;;;;;;;3725055;37;21087;-66
2021/05/05 09:48:00;;;;;;;;;7.25;7.00;;;;;;;;3725381;37;18532;-70
2021/05/05 09:50:27;;;;;;;;;8.00;8.00;;;;;;;;3725163;37;21160;-67
2021/05/05 09:53:11;;;;;;;;;8.25;8.00;;;;;;;;3724892;37;21647;-66
2021/05/05 09:55:43;;;;;;;;;7.75;7.75;;;;;;;;3725173;37;21119;-67
2021/05/05 09:58:22;;;;;;;;;9.75;9.75;;;;;;;;3725392;38;21047;-66
2021/05/05 10:01:09;;;;;;;;;7.50;7.50;;;;;;;;3725255;38;21130;-66
2021/05/05 10:03:48;;;;;;;;;5.00;5.00;;;;;;;;3725272;37;21080;-69
2021/05/05 10:06:31;;;;;;;;;6.75;6.75;;;;;;;;3725353;37;21069;-68
2021/05/05 10:09:03;;;;;;;;;7.00;7.00;;;;;;;;3725257;37;21024;-67
2021/05/05 10:11:32;;;;;;;;;6.00;6.00;;;;;;;;3725029;37;21037;-67
2021/05/05 10:13:59;;;;;;;;;3.00;2.00;;;;;;;;3724783;37;21024;-66
2021/05/05 10:16:26;;;;;;;;;7.00;7.00;;;;;;;;3725208;38;21061;-66
2021/05/05 10:18:52;;;;;;;;;6.75;6.00;;;;;;;;3725195;38;21049;-66
2021/05/05 10:21:23;;;;;;;;;6.50;6.50;;;;;;;;3724289;38;21034;-66
2021/05/05 10:23:50;;;;;;;;;6.00;6.00;;;;;;;;3725172;37;21049;-68
2021/05/05 10:26:18;;;;;;;;;10.50;8.50;;;;;;;;3725112;37;21020;-67
2021/05/05 10:28:44;;;;;;;;;9.00;7.75;;;;;;;;3725164;38;21039;-64
2021/05/05 10:31:22;;;;;;;;;8.25;8.25;;;;;;;;3725171;37;21043;-63
2021/05/05 10:33:49;;;;;;;;;12.25;11.50;;;;;;;;3725243;38;18474;-66
2021/05/05 10:36:28;;;;;;;;;6.00;6.00;;;;;;;;3725094;37;21074;-65
2021/05/05 10:38:54;;;;;;;;;9.00;8.00;;;;;;;;3725159;37;21018;-64
2021/05/05 10:41:21;;;;;;;;;14.50;14.00;;;;;;;;3724765;38;20992;-66
2021/05/05 10:43:54;;;;;;;;;6.50;6.50;;;;;;;;3725140;37;18459;-68
2021/05/05 10:46:24;;;;;;;;;10.50;10.50;;;;;;;;3725173;38;20980;-66
2021/05/05 10:49:01;;;;;;;;;8.75;8.00;;;;;;;;3725216;37;21043;-66
2021/05/05 10:51:48;;;;;;;;;7.00;7.00;;;;;;;;3725238;38;20973;-65
2021/05/05 10:54:15;;;;;;;;;4.00;4.00;;;;;;;;3725146;37;20983;-64
2021/05/05 10:56:43;;;;;;;;;5.00;5.00;;;;;;;;3725146;38;20982;-65
2021/05/05 10:59:11;;;;;;;;;6.25;5.50;;;;;;;;3725184;38;20973;-66
2021/05/05 11:01:40;;;;;;;;;5.75;5.25;;;;;;;;3725354;38;20975;-64
2021/05/05 11:04:08;;;;;;;;;10.50;9.75;;;;;;;;3725199;37;20976;-66
2021/05/05 11:06:44;;;;;;;;;7.00;6.00;;;;;;;;3725058;37;20958;-66
2021/05/05 11:09:29;;;;;;;;;5.75;5.75;;;;;;;;3724932;37;20943;-67
2021/05/05 11:11:55;;;;;;;;;5.50;5.50;;;;;;;;3725180;38;20959;-67
2021/05/05 11:14:44;;;;;;;;;7.25;6.50;;;;;;;;3725204;38;20958;-64
2021/05/05 11:17:11;;;;;;;;;5.25;5.25;;;;;;;;3725916;37;18433;-64
2021/05/05 11:19:46;;;;;;;;;6.75;6.25;;;;;;;;3725325;37;20977;-66
2021/05/05 11:22:35;;;;;;;;;6.50;6.00;;;;;;;;3724895;37;20955;-66
2021/05/05 11:25:20;;;;;;;;;8.50;7.00;;;;;;;;3725297;38;20947;-66
2021/05/05 11:27:48;;;;;;;;;15.00;14.50;;;;;;;;3727105;38;20926;-65
2021/05/05 11:30:32;;;;;;;;;8.50;8.50;;;;;;;;3727173;37;20998;-66
2021/05/05 11:32:59;;;;;;;;;6.25;6.00;;;;;;;;3725915;37;20971;-65
2021/05/05 11:35:26;;;;;;;;;7.75;6.00;;;;;;;;3724958;38;21009;-64
2021/05/05 11:38:02;;;;;;;;;6.00;6.00;;;;;;;;3724833;37;20943;-65
2021/05/05 11:40:28;;;;;;;;;5.50;4.75;;;;;;;;3725144;38;21019;-65
2021/05/05 11:42:54;;;;;;;;;6.00;5.50;;;;;;;;3725120;38;20929;-64
2021/05/05 11:45:21;;;;;;;;;10.75;9.75;;;;;;;;3725243;38;18381;-64
2021/05/05 11:47:47;;;;;;;;;6.00;5.50;;;;;;;;3725300;37;20976;-65
2021/05/05 11:50:29;;;;;;;;;3.25;3.25;;;;;;;;3725125;37;20976;-65
2021/05/05 11:52:56;;;;;;;;;8.50;8.50;;;;;;;;3725122;38;18421;-65
2021/05/05 11:55:23;;;;;;;;;15.50;15.50;;;;;;;;3725397;37;20911;-65
2021/05/05 11:57:51;;;;;;;;;9.50;9.50;;;;;;;;3724808;38;20974;-65
2021/05/05 12:00:21;;;;;;;;;6.00;6.00;;;;;;;;3725325;37;20898;-65
2021/05/05 12:02:48;;;;;;;;;5.25;5.00;;;;;;;;3725178;37;20972;-66
2021/05/05 12:05:28;;;;;;;;;8.50;8.50;;;;;;;;3725225;38;20993;-66
2021/05/05 12:08:05;;;;;;;;;6.00;6.00;;;;;;;;3725338;38;20894;-66
2021/05/05 12:10:53;;;;;;;;;8.25;7.50;;;;;;;;3725274;38;20885;-66
2021/05/05 12:13:22;;;;;;;;;7.50;7.00;;;;;;;;3725206;37;20902;-65
2021/05/05 12:15:59;;;;;;;;;8.50;8.50;;;;;;;;3725400;37;20886;-64
2021/05/05 12:18:33;;;;;;;;;11.00;11.00;;;;;;;;3725332;38;20886;-63
2021/05/05 12:21:16;;;;;;;;;6.75;5.75;;;;;;;;3724969;37;20866;-64
2021/05/05 12:24:00;;;;;;;;;5.25;4.50;;;;;;;;3725247;37;20874;-66
2021/05/05 12:26:29;;;;;;;;;7.25;6.75;;;;;;;;3725339;38;20843;-65
2021/05/05 12:28:57;;;;;;;;;7.75;7.50;;;;;;;;3725425;37;20850;-65
2021/05/05 12:31:24;;;;;;;;;6.00;6.00;;;;;;;;3725168;37;20861;-67
2021/05/05 12:33:50;;;;;;;;;9.00;9.00;;;;;;;;3725218;38;20885;-65
2021/05/05 12:36:18;;;;;;;;;10.25;9.75;;;;;;;;3725102;37;20833;-65
2021/05/05 12:38:45;;;;;;;;;10.50;10.25;;;;;;;;3725052;37;20874;-64
2021/05/05 12:41:23;;;;;;;;;5.75;5.50;;;;;;;;3724868;37;20840;-64
2021/05/05 12:43:56;;;;;;;;;9.25;8.50;;;;;;;;3724648;37;20922;-65
2021/05/05 12:46:24;;;;;;;;;4.75;4.75;;;;;;;;3724501;38;20873;-65
2021/05/05 12:48:50;;;;;;;;;4.25;4.25;;;;;;;;3725251;37;20835;-63
2021/05/05 12:51:19;;;;;;;;;8.75;8.00;;;;;;;;3724893;37;20905;-66
2021/05/05 12:53:58;;;;;;;;;9.75;9.00;;;;;;;;3725284;37;20854;-64
2021/05/05 12:56:39;;;;;;;;;11.25;10.00;;;;;;;;3725361;38;20837;-65
2021/05/05 12:59:05;;;;;;;;;12.25;12.25;;;;;;;;3725232;38;20880;-65
2021/05/05 13:01:33;;;;;;;;;7.50;7.50;;;;;;;;3725445;38;20861;-64
2021/05/05 13:04:05;;;;;;;;;11.00;11.00;;;;;;;;3724771;37;20843;-65
2021/05/05 13:07:01;;;;;;;;;6.00;6.00;;;;;;;;3725285;37;20885;-65
2021/05/05 13:09:27;;;;;;;;;8.00;8.00;;;;;;;;3725217;38;20827;-65
2021/05/05 13:12:10;;;;;;;;;7.00;7.00;;;;;;;;3725167;37;20799;-65
2021/05/05 13:15:07;;;;;;;;;11.00;10.00;;;;;;;;3725510;37;18243;-64
2021/05/05 13:17:58;;;;;;;;;9.75;9.75;;;;;;;;3725091;38;20865;-64
2021/05/05 13:20:42;;;;;;;;;6.25;6.25;;;;;;;;3725223;38;20835;-66
2021/05/05 13:31:49;;;;;;;;;10.75;10.75;;;;;;;;3725040;37;20750;-66
2021/05/05 13:34:17;;;;;;;;;6.00;6.00;;;;;;;;3725218;38;20846;-66
2021/05/05 13:36:48;;;;;;;;;9.25;9.25;;;;;;;;3724615;37;20774;-64
2021/05/05 13:39:35;;;;;;;;;7.00;6.50;;;;;;;;3725410;37;20789;-65
2021/05/05 13:42:05;;;;;;;;;13.75;13.75;;;;;;;;3724824;38;20799;-65
2021/05/05 13:47:24;;;;;;;;;11.50;11.25;;;;;;;;3724837;38;20823;-65
2021/05/05 13:49:54;;;;;;;;;6.50;6.25;;;;;;;;3725226;37;20803;-65
2021/05/05 13:52:21;;;;;;;;;9.00;9.00;;;;;;;;3725436;38;20763;-65
2021/05/05 13:54:47;;;;;;;;;7.00;7.00;;;;;;;;3725185;37;20726;-65
2021/05/05 13:57:13;;;;;;;;;9.75;9.00;;;;;;;;3725317;38;20759;-64
2021/05/05 13:59:40;;;;;;;;;8.50;8.50;;;;;;;;3725179;37;20777;-64
2021/05/05 14:02:12;;;;;;;;;10.00;9.00;;;;;;;;3725423;38;20770;-65
2021/05/05 14:04:41;;;;;;;;;13.25;13.00;;;;;;;;3725197;38;20752;-65
2021/05/05 14:07:10;;;;;;;;;8.75;8.25;;;;;;;;3725540;38;20805;-65
2021/05/05 14:09:37;;;;;;;;;5.25;5.25;;;;;;;;3727454;38;20739;-64
2021/05/05 14:12:03;;;;;;;;;6.25;6.25;;;;;;;;3725469;37;20729;-65
2021/05/05 14:14:31;;;;;;;;;5.75;5.75;;;;;;;;3725009;37;20692;-64
2021/05/05 14:16:59;;;;;;;;;5.50;5.50;;;;;;;;3724842;37;20729;-64
2021/05/05 14:19:25;;;;;;;;;5.75;5.50;;;;;;;;3725051;37;20789;-65
2021/05/05 14:21:52;;;;;;;;;13.75;13.75;;;;;;;;3725060;37;20714;-64
2021/05/05 14:24:18;;;;;;;;;6.75;6.00;;;;;;;;3724670;38;18175;-64
2021/05/05 14:26:44;;;;;;;;;15.50;15.50;;;;;;;;3724285;38;21224;-65
2021/05/05 14:29:11;;;;;;;;;8.00;7.50;;;;;;;;3724443;37;21369;-63
2021/05/05 14:31:37;;;;;;;;;7.00;7.00;;;;;;;;3724598;37;21275;-64
2021/05/05 14:34:03;;;;;;;;;5.25;5.00;;;;;;;;3724611;37;21264;-64
2021/05/05 14:36:29;;;;;;;;;8.75;8.25;;;;;;;;3724796;38;18238;-63
2021/05/05 14:38:54;;;;;;;;;6.00;5.00;;;;;;;;3725068;38;21221;-63
2021/05/05 14:41:28;;;;;;;;;10.00;8.00;;;;;;;;3725091;38;18224;-65
2021/05/05 14:44:11;;;;;;;;;7.25;7.00;;;;;;;;3724975;37;18211;-62
2021/05/05 14:49:24;;;;;;;;;14.00;12.75;;;;;;;;3724734;37;21287;-63
2021/05/05 14:51:50;;;;;;;;;6.00;6.00;;;;;;;;3724894;37;21334;-64
2021/05/05 14:54:16;;;;;;;;;7.00;7.00;;;;;;;;3725199;37;18204;-64
2021/05/05 14:56:47;;;;;;;;;5.00;5.00;;;;;;;;3724873;37;18205;-63
2021/05/05 14:59:15;;;;;;;;;6.00;5.00;;;;;;;;3725207;37;18204;-63